sensor_id;sensor_type;location;lat;lon;timestamp;P1;durP1;ratioP1;P2;durP2;ratioP2
6013;SDS011;3035;49.928;8.410;2024-01-15T00:01:09;23.90;;;9.27;;
6013;SDS011;3035;49.928;8.410;2024-01-15T00:03:36;25.43;;;9.67;;
6013;SDS011;3035;49.928;8.410;2024-01-15T00:06:04;26.27;;;9.87;;
6013;SDS011;3035;49.928;8.410;2024-01-15T00:08:33;22.97;;;9.50;;
6013;SDS011;3035;49.928;8.410;2024-01-15T00:11:01;23.37;;;9.50;;
6013;SDS011;3035;49.928;8.410;2024-01-15T00:13:29;27.07;;;9.53;;
6013;SDS011;3035;49.928;8.410;2024-01-15T00:15:57;21.87;;;8.70;;
6013;SDS011;3035;49.928;8.410;2024-01-15T00:18:25;28.80;;;10.27;;
6013;SDS011;3035;49.928;8.410;2024-01-15T00:20:53;31.63;;;9.60;;
6013;SDS011;3035;49.928;8.410;2024-01-15T00:23:20;27.30;;;9.60;;
6013;SDS011;3035;49.928;8.410;2024-01-15T00:25:48;23.40;;;9.10;;
6013;SDS011;3035;49.928;8.410;2024-01-15T00:28:16;24.33;;;9.77;;
6013;SDS011;3035;49.928;8.410;2024-01-15T00:30:44;26.27;;;9.70;;
6013;SDS011;3035;49.928;8.410;2024-01-15T00:33:12;23.10;;;9.33;;
6013;SDS011;3035;49.928;8.410;2024-01-15T00:35:40;20.80;;;8.50;;
6013;SDS011;3035;49.928;8.410;2024-01-15T00:38:08;25.30;;;9.40;;
6013;SDS011;3035;49.928;8.410;2024-01-15T00:40:37;27.27;;;9.37;;
6013;SDS011;3035;49.928;8.410;2024-01-15T00:43:04;26.00;;;9.90;;
6013;SDS011;3035;49.928;8.410;2024-01-15T00:45:31;22.43;;;9.17;;
6013;SDS011;3035;49.928;8.410;2024-01-15T00:47:59;24.87;;;9.90;;
6013;SDS011;3035;49.928;8.410;2024-01-15T00:50:26;22.03;;;9.40;;
6013;SDS011;3035;49.928;8.410;2024-01-15T00:52:54;29.40;;;9.93;;
6013;SDS011;3035;49.928;8.410;2024-01-15T00:55:21;32.03;;;9.70;;
6013;SDS011;3035;49.928;8.410;2024-01-15T00:57:49;26.47;;;9.00;;
6013;SDS011;3035;49.928;8.410;2024-01-15T01:00:16;28.23;;;9.30;;
6013;SDS011;3035;49.928;8.410;2024-01-15T01:02:44;23.77;;;8.93;;
6013;SDS011;3035;49.928;8.410;2024-01-15T01:05:11;26.10;;;8.10;;
6013;SDS011;3035;49.928;8.410;2024-01-15T01:07:39;23.17;;;7.73;;
6013;SDS011;3035;49.928;8.410;2024-01-15T01:10:06;28.17;;;10.50;;
6013;SDS011;3035;49.928;8.410;2024-01-15T01:12:34;28.83;;;9.70;;
6013;SDS011;3035;49.928;8.410;2024-01-15T01:15:01;22.47;;;8.33;;
6013;SDS011;3035;49.928;8.410;2024-01-15T01:17:28;24.90;;;9.10;;
6013;SDS011;3035;49.928;8.410;2024-01-15T01:19:56;17.87;;;8.43;;
6013;SDS011;3035;49.928;8.410;2024-01-15T01:22:23;27.17;;;10.83;;
6013;SDS011;3035;49.928;8.410;2024-01-15T01:24:51;27.83;;;9.00;;
6013;SDS011;3035;49.928;8.410;2024-01-15T01:27:19;20.77;;;8.83;;
6013;SDS011;3035;49.928;8.410;2024-01-15T01:29:46;19.97;;;8.70;;
6013;SDS011;3035;49.928;8.410;2024-01-15T01:32:14;27.93;;;8.20;;
6013;SDS011;3035;49.928;8.410;2024-01-15T01:34:41;21.53;;;9.20;;
6013;SDS011;3035;49.928;8.410;2024-01-15T01:37:10;19.60;;;8.60;;
6013;SDS011;3035;49.928;8.410;2024-01-15T01:39:37;18.77;;;7.93;;
6013;SDS011;3035;49.928;8.410;2024-01-15T01:42:04;18.07;;;8.10;;
6013;SDS011;3035;49.928;8.410;2024-01-15T01:44:32;23.10;;;10.17;;
6013;SDS011;3035;49.928;8.410;2024-01-15T01:46:59;19.77;;;8.57;;
6013;SDS011;3035;49.928;8.410;2024-01-15T01:49:27;21.03;;;7.90;;
6013;SDS011;3035;49.928;8.410;2024-01-15T01:51:56;19.30;;;7.87;;
6013;SDS011;3035;49.928;8.410;2024-01-15T01:54:22;20.30;;;8.93;;
6013;SDS011;3035;49.928;8.410;2024-01-15T01:56:50;24.30;;;8.50;;
6013;SDS011;3035;49.928;8.410;2024-01-15T01:59:17;22.93;;;7.73;;
6013;SDS011;3035;49.928;8.410;2024-01-15T02:01:45;15.77;;;8.53;;
6013;SDS011;3035;49.928;8.410;2024-01-15T02:04:12;22.00;;;7.93;;
6013;SDS011;3035;49.928;8.410;2024-01-15T02:06:40;27.50;;;9.00;;
6013;SDS011;3035;49.928;8.410;2024-01-15T02:09:07;21.40;;;8.90;;
6013;SDS011;3035;49.928;8.410;2024-01-15T02:11:35;24.53;;;9.30;;
6013;SDS011;3035;49.928;8.410;2024-01-15T02:14:02;22.83;;;8.90;;
6013;SDS011;3035;49.928;8.410;2024-01-15T02:16:29;18.83;;;8.83;;
6013;SDS011;3035;49.928;8.410;2024-01-15T02:18:57;21.80;;;7.70;;
6013;SDS011;3035;49.928;8.410;2024-01-15T02:21:24;18.23;;;8.40;;
6013;SDS011;3035;49.928;8.410;2024-01-15T02:23:52;19.93;;;9.50;;
6013;SDS011;3035;49.928;8.410;2024-01-15T02:26:19;22.23;;;8.40;;
6013;SDS011;3035;49.928;8.410;2024-01-15T02:28:47;27.27;;;8.93;;
6013;SDS011;3035;49.928;8.410;2024-01-15T02:31:14;16.20;;;7.27;;
6013;SDS011;3035;49.928;8.410;2024-01-15T02:33:42;22.10;;;8.80;;
6013;SDS011;3035;49.928;8.410;2024-01-15T02:36:09;19.23;;;7.80;;
6013;SDS011;3035;49.928;8.410;2024-01-15T02:38:36;18.97;;;7.40;;
6013;SDS011;3035;49.928;8.410;2024-01-15T02:41:04;20.63;;;8.03;;
6013;SDS011;3035;49.928;8.410;2024-01-15T02:43:31;20.60;;;7.40;;
6013;SDS011;3035;49.928;8.410;2024-01-15T02:45:59;22.90;;;7.93;;
6013;SDS011;3035;49.928;8.410;2024-01-15T02:48:26;15.57;;;6.90;;
6013;SDS011;3035;49.928;8.410;2024-01-15T02:50:54;21.70;;;8.60;;
6013;SDS011;3035;49.928;8.410;2024-01-15T02:53:21;20.20;;;7.67;;
6013;SDS011;3035;49.928;8.410;2024-01-15T02:55:48;19.13;;;8.10;;
6013;SDS011;3035;49.928;8.410;2024-01-15T02:58:16;23.20;;;8.40;;
6013;SDS011;3035;49.928;8.410;2024-01-15T03:00:43;19.20;;;8.20;;
6013;SDS011;3035;49.928;8.410;2024-01-15T03:03:11;19.43;;;7.07;;
6013;SDS011;3035;49.928;8.410;2024-01-15T03:05:38;17.83;;;7.07;;
6013;SDS011;3035;49.928;8.410;2024-01-15T03:08:06;14.40;;;6.37;;
6013;SDS011;3035;49.928;8.410;2024-01-15T03:10:33;21.57;;;8.03;;
6013;SDS011;3035;49.928;8.410;2024-01-15T03:13:00;18.60;;;6.97;;
6013;SDS011;3035;49.928;8.410;2024-01-15T03:15:28;15.83;;;7.40;;
6013;SDS011;3035;49.928;8.410;2024-01-15T03:17:55;22.37;;;6.70;;
6013;SDS011;3035;49.928;8.410;2024-01-15T03:20:23;19.57;;;7.50;;
6013;SDS011;3035;49.928;8.410;2024-01-15T03:22:50;17.43;;;7.10;;
6013;SDS011;3035;49.928;8.410;2024-01-15T03:25:18;24.83;;;7.33;;
6013;SDS011;3035;49.928;8.410;2024-01-15T03:27:45;19.03;;;7.50;;
6013;SDS011;3035;49.928;8.410;2024-01-15T03:30:13;16.60;;;6.50;;
6013;SDS011;3035;49.928;8.410;2024-01-15T03:32:40;18.00;;;6.63;;
6013;SDS011;3035;49.928;8.410;2024-01-15T03:35:08;19.83;;;7.20;;
6013;SDS011;3035;49.928;8.410;2024-01-15T03:37:35;15.43;;;6.93;;
6013;SDS011;3035;49.928;8.410;2024-01-15T03:40:03;20.70;;;7.17;;
6013;SDS011;3035;49.928;8.410;2024-01-15T03:42:30;21.47;;;6.97;;
6013;SDS011;3035;49.928;8.410;2024-01-15T03:44:58;15.17;;;7.30;;
6013;SDS011;3035;49.928;8.410;2024-01-15T03:47:26;19.83;;;7.13;;
6013;SDS011;3035;49.928;8.410;2024-01-15T03:49:53;17.40;;;7.23;;
6013;SDS011;3035;49.928;8.410;2024-01-15T03:52:20;21.17;;;7.27;;
6013;SDS011;3035;49.928;8.410;2024-01-15T03:54:48;17.93;;;7.47;;
6013;SDS011;3035;49.928;8.410;2024-01-15T03:57:15;17.23;;;7.27;;
6013;SDS011;3035;49.928;8.410;2024-01-15T03:59:42;19.60;;;6.77;;
6013;SDS011;3035;49.928;8.410;2024-01-15T04:02:10;16.70;;;6.80;;
6013;SDS011;3035;49.928;8.410;2024-01-15T04:04:40;17.67;;;7.63;;
6013;SDS011;3035;49.928;8.410;2024-01-15T04:07:05;16.90;;;7.70;;
6013;SDS011;3035;49.928;8.410;2024-01-15T04:09:32;21.07;;;8.20;;
6013;SDS011;3035;49.928;8.410;2024-01-15T04:12:00;20.90;;;7.77;;
6013;SDS011;3035;49.928;8.410;2024-01-15T04:14:27;20.50;;;8.43;;
6013;SDS011;3035;49.928;8.410;2024-01-15T04:16:54;26.17;;;8.80;;
6013;SDS011;3035;49.928;8.410;2024-01-15T04:19:22;23.00;;;8.10;;
6013;SDS011;3035;49.928;8.410;2024-01-15T04:21:49;21.20;;;8.00;;
6013;SDS011;3035;49.928;8.410;2024-01-15T04:24:17;21.10;;;7.43;;
6013;SDS011;3035;49.928;8.410;2024-01-15T04:26:45;14.80;;;6.73;;
6013;SDS011;3035;49.928;8.410;2024-01-15T04:29:12;19.70;;;7.57;;
6013;SDS011;3035;49.928;8.410;2024-01-15T04:31:39;17.30;;;7.30;;
6013;SDS011;3035;49.928;8.410;2024-01-15T04:34:07;15.47;;;6.60;;
6013;SDS011;3035;49.928;8.410;2024-01-15T04:36:39;22.80;;;8.43;;
6013;SDS011;3035;49.928;8.410;2024-01-15T04:39:06;20.07;;;8.10;;
6013;SDS011;3035;49.928;8.410;2024-01-15T04:41:34;18.43;;;8.33;;
6013;SDS011;3035;49.928;8.410;2024-01-15T04:44:03;18.27;;;7.60;;
6013;SDS011;3035;49.928;8.410;2024-01-15T04:46:31;16.60;;;7.10;;
6013;SDS011;3035;49.928;8.410;2024-01-15T04:48:59;21.43;;;7.90;;
6013;SDS011;3035;49.928;8.410;2024-01-15T04:51:27;24.80;;;7.60;;
6013;SDS011;3035;49.928;8.410;2024-01-15T04:53:54;18.90;;;8.37;;
6013;SDS011;3035;49.928;8.410;2024-01-15T04:56:22;17.17;;;7.47;;
6013;SDS011;3035;49.928;8.410;2024-01-15T04:58:51;21.70;;;7.60;;
6013;SDS011;3035;49.928;8.410;2024-01-15T05:01:19;19.80;;;8.03;;
6013;SDS011;3035;49.928;8.410;2024-01-15T05:03:47;18.60;;;8.07;;
6013;SDS011;3035;49.928;8.410;2024-01-15T05:06:16;21.37;;;7.27;;
6013;SDS011;3035;49.928;8.410;2024-01-15T05:08:44;19.00;;;7.23;;
6013;SDS011;3035;49.928;8.410;2024-01-15T05:11:11;18.90;;;8.10;;
6013;SDS011;3035;49.928;8.410;2024-01-15T05:13:40;22.90;;;9.00;;
6013;SDS011;3035;49.928;8.410;2024-01-15T05:16:08;20.63;;;7.57;;
6013;SDS011;3035;49.928;8.410;2024-01-15T05:18:36;15.53;;;8.00;;
6013;SDS011;3035;49.928;8.410;2024-01-15T05:21:04;13.23;;;6.77;;
6013;SDS011;3035;49.928;8.410;2024-01-15T05:23:32;23.17;;;8.03;;
6013;SDS011;3035;49.928;8.410;2024-01-15T05:26:00;23.70;;;8.03;;
6013;SDS011;3035;49.928;8.410;2024-01-15T05:28:29;26.93;;;8.90;;
6013;SDS011;3035;49.928;8.410;2024-01-15T05:30:56;17.97;;;7.10;;
6013;SDS011;3035;49.928;8.410;2024-01-15T05:33:25;22.97;;;8.33;;
6013;SDS011;3035;49.928;8.410;2024-01-15T05:35:52;21.53;;;7.70;;
6013;SDS011;3035;49.928;8.410;2024-01-15T05:38:20;16.77;;;7.00;;
6013;SDS011;3035;49.928;8.410;2024-01-15T05:40:49;21.10;;;8.27;;
6013;SDS011;3035;49.928;8.410;2024-01-15T05:43:17;18.30;;;7.90;;
6013;SDS011;3035;49.928;8.410;2024-01-15T05:45:46;20.77;;;8.07;;
6013;SDS011;3035;49.928;8.410;2024-01-15T05:48:13;20.23;;;7.63;;
6013;SDS011;3035;49.928;8.410;2024-01-15T05:50:42;31.37;;;7.93;;
6013;SDS011;3035;49.928;8.410;2024-01-15T05:53:09;20.57;;;7.37;;
6013;SDS011;3035;49.928;8.410;2024-01-15T05:55:38;20.63;;;9.03;;
6013;SDS011;3035;49.928;8.410;2024-01-15T05:58:05;23.27;;;8.07;;
6013;SDS011;3035;49.928;8.410;2024-01-15T06:00:33;26.80;;;8.43;;
6013;SDS011;3035;49.928;8.410;2024-01-15T06:03:01;20.97;;;8.00;;
6013;SDS011;3035;49.928;8.410;2024-01-15T06:05:29;14.90;;;7.10;;
6013;SDS011;3035;49.928;8.410;2024-01-15T06:07:58;23.80;;;8.87;;
6013;SDS011;3035;49.928;8.410;2024-01-15T06:10:26;19.30;;;7.47;;
6013;SDS011;3035;49.928;8.410;2024-01-15T06:12:54;21.27;;;8.53;;
6013;SDS011;3035;49.928;8.410;2024-01-15T06:15:22;19.33;;;7.63;;
6013;SDS011;3035;49.928;8.410;2024-01-15T06:17:50;13.87;;;6.77;;
6013;SDS011;3035;49.928;8.410;2024-01-15T06:20:18;20.20;;;7.50;;
6013;SDS011;3035;49.928;8.410;2024-01-15T06:22:46;21.47;;;7.20;;
6013;SDS011;3035;49.928;8.410;2024-01-15T06:25:13;14.50;;;6.77;;
6013;SDS011;3035;49.928;8.410;2024-01-15T06:27:42;16.00;;;7.47;;
6013;SDS011;3035;49.928;8.410;2024-01-15T06:30:10;18.70;;;7.13;;
6013;SDS011;3035;49.928;8.410;2024-01-15T06:32:39;15.87;;;7.73;;
6013;SDS011;3035;49.928;8.410;2024-01-15T06:35:07;22.10;;;8.70;;
6013;SDS011;3035;49.928;8.410;2024-01-15T06:37:35;13.73;;;7.03;;
6013;SDS011;3035;49.928;8.410;2024-01-15T06:40:03;17.73;;;8.43;;
6013;SDS011;3035;49.928;8.410;2024-01-15T06:42:31;20.80;;;8.53;;
6013;SDS011;3035;49.928;8.410;2024-01-15T06:44:59;16.63;;;8.17;;
6013;SDS011;3035;49.928;8.410;2024-01-15T06:47:26;20.60;;;9.10;;
6013;SDS011;3035;49.928;8.410;2024-01-15T06:49:55;22.00;;;8.27;;
6013;SDS011;3035;49.928;8.410;2024-01-15T06:52:23;22.03;;;9.50;;
6013;SDS011;3035;49.928;8.410;2024-01-15T06:54:52;19.77;;;8.37;;
6013;SDS011;3035;49.928;8.410;2024-01-15T06:57:20;18.30;;;8.03;;
6013;SDS011;3035;49.928;8.410;2024-01-15T06:59:48;16.07;;;8.43;;
6013;SDS011;3035;49.928;8.410;2024-01-15T07:02:17;18.50;;;8.00;;
6013;SDS011;3035;49.928;8.410;2024-01-15T07:04:44;22.00;;;9.20;;
6013;SDS011;3035;49.928;8.410;2024-01-15T07:07:12;25.53;;;8.43;;
6013;SDS011;3035;49.928;8.410;2024-01-15T07:09:40;21.33;;;8.23;;
6013;SDS011;3035;49.928;8.410;2024-01-15T07:12:09;24.83;;;9.90;;
6013;SDS011;3035;49.928;8.410;2024-01-15T07:14:37;18.47;;;8.60;;
6013;SDS011;3035;49.928;8.410;2024-01-15T07:17:05;24.07;;;8.50;;
6013;SDS011;3035;49.928;8.410;2024-01-15T07:19:33;29.00;;;9.20;;
6013;SDS011;3035;49.928;8.410;2024-01-15T07:22:01;21.63;;;8.60;;
6013;SDS011;3035;49.928;8.410;2024-01-15T07:24:29;20.67;;;8.97;;
6013;SDS011;3035;49.928;8.410;2024-01-15T07:26:57;25.77;;;9.67;;
6013;SDS011;3035;49.928;8.410;2024-01-15T07:29:25;20.10;;;8.60;;
6013;SDS011;3035;49.928;8.410;2024-01-15T07:31:53;22.40;;;9.23;;
6013;SDS011;3035;49.928;8.410;2024-01-15T07:34:21;17.57;;;7.40;;
6013;SDS011;3035;49.928;8.410;2024-01-15T07:36:49;16.40;;;7.93;;
6013;SDS011;3035;49.928;8.410;2024-01-15T07:39:17;20.50;;;8.30;;
6013;SDS011;3035;49.928;8.410;2024-01-15T07:41:46;20.80;;;7.73;;
6013;SDS011;3035;49.928;8.410;2024-01-15T07:44:14;19.53;;;9.13;;
6013;SDS011;3035;49.928;8.410;2024-01-15T07:46:44;20.73;;;10.40;;
6013;SDS011;3035;49.928;8.410;2024-01-15T07:49:13;20.83;;;8.57;;
6013;SDS011;3035;49.928;8.410;2024-01-15T07:51:40;23.03;;;9.33;;
6013;SDS011;3035;49.928;8.410;2024-01-15T07:54:09;20.53;;;8.63;;
6013;SDS011;3035;49.928;8.410;2024-01-15T07:59:24;22.40;;;9.57;;
6013;SDS011;3035;49.928;8.410;2024-01-15T08:01:52;21.23;;;9.10;;
6013;SDS011;3035;49.928;8.410;2024-01-15T08:04:21;21.57;;;9.10;;
6013;SDS011;3035;49.928;8.410;2024-01-15T08:06:50;19.27;;;7.80;;
6013;SDS011;3035;49.928;8.410;2024-01-15T08:09:18;18.23;;;7.30;;
6013;SDS011;3035;49.928;8.410;2024-01-15T08:11:46;20.60;;;8.93;;
6013;SDS011;3035;49.928;8.410;2024-01-15T08:14:15;20.07;;;8.40;;
6013;SDS011;3035;49.928;8.410;2024-01-15T08:16:43;20.37;;;8.60;;
6013;SDS011;3035;49.928;8.410;2024-01-15T08:19:11;16.60;;;7.90;;
6013;SDS011;3035;49.928;8.410;2024-01-15T08:21:38;19.27;;;8.37;;
6013;SDS011;3035;49.928;8.410;2024-01-15T08:24:06;15.30;;;7.80;;
6013;SDS011;3035;49.928;8.410;2024-01-15T08:26:34;19.50;;;7.93;;
6013;SDS011;3035;49.928;8.410;2024-01-15T08:29:01;20.03;;;7.97;;
6013;SDS011;3035;49.928;8.410;2024-01-15T08:31:30;14.93;;;7.97;;
6013;SDS011;3035;49.928;8.410;2024-01-15T08:33:57;19.43;;;7.63;;
6013;SDS011;3035;49.928;8.410;2024-01-15T08:36:26;16.97;;;8.03;;
6013;SDS011;3035;49.928;8.410;2024-01-15T08:38:53;17.13;;;8.50;;
6013;SDS011;3035;49.928;8.410;2024-01-15T08:41:21;17.33;;;6.70;;
6013;SDS011;3035;49.928;8.410;2024-01-15T08:43:49;15.93;;;7.73;;
6013;SDS011;3035;49.928;8.410;2024-01-15T08:46:16;20.43;;;9.20;;
6013;SDS011;3035;49.928;8.410;2024-01-15T08:48:44;15.00;;;8.40;;
6013;SDS011;3035;49.928;8.410;2024-01-15T08:51:13;17.13;;;7.63;;
6013;SDS011;3035;49.928;8.410;2024-01-15T08:53:40;17.90;;;7.20;;
6013;SDS011;3035;49.928;8.410;2024-01-15T08:56:09;13.77;;;6.70;;
6013;SDS011;3035;49.928;8.410;2024-01-15T08:58:37;15.60;;;7.20;;
6013;SDS011;3035;49.928;8.410;2024-01-15T09:01:04;19.73;;;8.97;;
6013;SDS011;3035;49.928;8.410;2024-01-15T09:03:32;18.40;;;8.20;;
6013;SDS011;3035;49.928;8.410;2024-01-15T09:06:00;18.20;;;6.90;;
6013;SDS011;3035;49.928;8.410;2024-01-15T09:08:28;17.40;;;8.30;;
6013;SDS011;3035;49.928;8.410;2024-01-15T09:10:57;17.70;;;7.93;;
6013;SDS011;3035;49.928;8.410;2024-01-15T09:13:24;17.50;;;7.90;;
6013;SDS011;3035;49.928;8.410;2024-01-15T09:15:51;15.47;;;8.07;;
6013;SDS011;3035;49.928;8.410;2024-01-15T09:18:20;18.13;;;8.47;;
6013;SDS011;3035;49.928;8.410;2024-01-15T09:20:47;17.00;;;7.10;;
6013;SDS011;3035;49.928;8.410;2024-01-15T09:23:16;18.70;;;8.40;;
6013;SDS011;3035;49.928;8.410;2024-01-15T09:25:44;14.33;;;7.43;;
6013;SDS011;3035;49.928;8.410;2024-01-15T09:28:12;19.17;;;7.43;;
6013;SDS011;3035;49.928;8.410;2024-01-15T09:30:40;14.70;;;7.37;;
6013;SDS011;3035;49.928;8.410;2024-01-15T09:33:09;14.80;;;7.27;;
6013;SDS011;3035;49.928;8.410;2024-01-15T09:35:36;18.90;;;7.60;;
6013;SDS011;3035;49.928;8.410;2024-01-15T09:38:04;14.47;;;7.03;;
6013;SDS011;3035;49.928;8.410;2024-01-15T09:40:32;13.90;;;7.40;;
6013;SDS011;3035;49.928;8.410;2024-01-15T09:43:01;18.03;;;8.10;;
6013;SDS011;3035;49.928;8.410;2024-01-15T09:45:29;14.67;;;7.00;;
6013;SDS011;3035;49.928;8.410;2024-01-15T09:47:57;11.83;;;7.00;;
6013;SDS011;3035;49.928;8.410;2024-01-15T09:50:24;17.10;;;7.40;;
6013;SDS011;3035;49.928;8.410;2024-01-15T09:52:52;13.53;;;7.47;;
6013;SDS011;3035;49.928;8.410;2024-01-15T09:55:20;13.23;;;6.83;;
6013;SDS011;3035;49.928;8.410;2024-01-15T09:57:48;17.77;;;8.37;;
6013;SDS011;3035;49.928;8.410;2024-01-15T10:00:17;14.20;;;7.80;;
6013;SDS011;3035;49.928;8.410;2024-01-15T10:02:44;14.23;;;7.63;;
6013;SDS011;3035;49.928;8.410;2024-01-15T10:05:12;16.63;;;8.17;;
6013;SDS011;3035;49.928;8.410;2024-01-15T10:07:40;15.80;;;8.33;;
6013;SDS011;3035;49.928;8.410;2024-01-15T10:10:07;15.00;;;7.87;;
6013;SDS011;3035;49.928;8.410;2024-01-15T10:12:35;15.13;;;8.03;;
6013;SDS011;3035;49.928;8.410;2024-01-15T10:15:03;20.43;;;8.57;;
6013;SDS011;3035;49.928;8.410;2024-01-15T10:17:30;23.53;;;9.50;;
6013;SDS011;3035;49.928;8.410;2024-01-15T10:19:58;17.33;;;7.93;;
6013;SDS011;3035;49.928;8.410;2024-01-15T10:22:25;15.80;;;7.93;;
6013;SDS011;3035;49.928;8.410;2024-01-15T10:24:54;17.07;;;7.80;;
6013;SDS011;3035;49.928;8.410;2024-01-15T10:27:21;15.07;;;7.90;;
6013;SDS011;3035;49.928;8.410;2024-01-15T10:29:48;16.83;;;8.60;;
6013;SDS011;3035;49.928;8.410;2024-01-15T10:32:16;18.27;;;8.43;;
6013;SDS011;3035;49.928;8.410;2024-01-15T10:34:43;20.40;;;8.93;;
6013;SDS011;3035;49.928;8.410;2024-01-15T10:37:11;18.73;;;8.30;;
6013;SDS011;3035;49.928;8.410;2024-01-15T10:39:38;17.30;;;7.80;;
6013;SDS011;3035;49.928;8.410;2024-01-15T10:42:06;17.43;;;8.17;;
6013;SDS011;3035;49.928;8.410;2024-01-15T10:44:33;19.20;;;8.10;;
6013;SDS011;3035;49.928;8.410;2024-01-15T10:47:02;17.50;;;8.67;;
6013;SDS011;3035;49.928;8.410;2024-01-15T10:49:29;15.20;;;8.20;;
6013;SDS011;3035;49.928;8.410;2024-01-15T10:51:58;15.57;;;7.40;;
6013;SDS011;3035;49.928;8.410;2024-01-15T10:54:25;17.73;;;8.27;;
6013;SDS011;3035;49.928;8.410;2024-01-15T10:56:53;17.43;;;8.30;;
6013;SDS011;3035;49.928;8.410;2024-01-15T10:59:21;20.70;;;7.50;;
6013;SDS011;3035;49.928;8.410;2024-01-15T11:01:50;16.93;;;8.60;;
6013;SDS011;3035;49.928;8.410;2024-01-15T11:04:19;17.60;;;7.90;;
6013;SDS011;3035;49.928;8.410;2024-01-15T11:06:49;14.30;;;7.67;;
6013;SDS011;3035;49.928;8.410;2024-01-15T11:09:15;15.90;;;8.23;;
6013;SDS011;3035;49.928;8.410;2024-01-15T11:11:44;13.30;;;7.47;;
6013;SDS011;3035;49.928;8.410;2024-01-15T11:14:11;12.80;;;7.40;;
6013;SDS011;3035;49.928;8.410;2024-01-15T11:19:19;14.53;;;7.30;;
6013;SDS011;3035;49.928;8.410;2024-01-15T11:21:47;10.00;;;6.03;;
6013;SDS011;3035;49.928;8.410;2024-01-15T11:24:32;13.70;;;6.80;;
6013;SDS011;3035;49.928;8.410;2024-01-15T11:26:58;11.20;;;6.03;;
6013;SDS011;3035;49.928;8.410;2024-01-15T11:29:34;15.27;;;8.17;;
6013;SDS011;3035;49.928;8.410;2024-01-15T11:32:02;11.53;;;7.13;;
6013;SDS011;3035;49.928;8.410;2024-01-15T11:37:11;12.87;;;6.37;;
6013;SDS011;3035;49.928;8.410;2024-01-15T11:39:40;10.17;;;5.80;;
6013;SDS011;3035;49.928;8.410;2024-01-15T11:42:07;10.93;;;5.90;;
6013;SDS011;3035;49.928;8.410;2024-01-15T11:44:36;11.90;;;6.47;;
6013;SDS011;3035;49.928;8.410;2024-01-15T11:47:05;12.50;;;5.73;;
6013;SDS011;3035;49.928;8.410;2024-01-15T11:52:24;15.87;;;7.50;;
6013;SDS011;3035;49.928;8.410;2024-01-15T11:57:49;12.50;;;6.50;;
6013;SDS011;3035;49.928;8.410;2024-01-15T12:00:18;11.70;;;6.20;;
6013;SDS011;3035;49.928;8.410;2024-01-15T12:02:45;10.83;;;6.40;;
6013;SDS011;3035;49.928;8.410;2024-01-15T12:05:14;10.30;;;5.63;;
6013;SDS011;3035;49.928;8.410;2024-01-15T12:07:42;15.63;;;6.40;;
6013;SDS011;3035;49.928;8.410;2024-01-15T12:10:10;14.47;;;7.30;;
6013;SDS011;3035;49.928;8.410;2024-01-15T12:12:49;10.00;;;5.90;;
6013;SDS011;3035;49.928;8.410;2024-01-15T12:15:14;10.10;;;6.60;;
6013;SDS011;3035;49.928;8.410;2024-01-15T12:17:42;15.20;;;6.83;;
6013;SDS011;3035;49.928;8.410;2024-01-15T12:20:10;14.10;;;7.03;;
6013;SDS011;3035;49.928;8.410;2024-01-15T12:22:38;10.60;;;6.10;;
6013;SDS011;3035;49.928;8.410;2024-01-15T12:25:06;12.30;;;6.07;;
6013;SDS011;3035;49.928;8.410;2024-01-15T12:27:34;11.87;;;6.23;;
6013;SDS011;3035;49.928;8.410;2024-01-15T12:30:03;16.33;;;7.37;;
6013;SDS011;3035;49.928;8.410;2024-01-15T12:32:32;10.63;;;5.60;;
6013;SDS011;3035;49.928;8.410;2024-01-15T12:35:00;8.87;;;5.30;;
6013;SDS011;3035;49.928;8.410;2024-01-15T12:37:28;8.87;;;5.93;;
6013;SDS011;3035;49.928;8.410;2024-01-15T12:39:56;11.30;;;5.80;;
6013;SDS011;3035;49.928;8.410;2024-01-15T12:42:24;8.83;;;5.10;;
6013;SDS011;3035;49.928;8.410;2024-01-15T12:44:52;9.80;;;5.10;;
6013;SDS011;3035;49.928;8.410;2024-01-15T12:47:20;8.23;;;4.70;;
6013;SDS011;3035;49.928;8.410;2024-01-15T12:49:50;12.80;;;5.90;;
6013;SDS011;3035;49.928;8.410;2024-01-15T12:52:18;9.73;;;5.47;;
6013;SDS011;3035;49.928;8.410;2024-01-15T12:54:45;9.97;;;5.13;;
6013;SDS011;3035;49.928;8.410;2024-01-15T12:57:13;10.07;;;5.90;;
6013;SDS011;3035;49.928;8.410;2024-01-15T12:59:42;10.30;;;5.33;;
6013;SDS011;3035;49.928;8.410;2024-01-15T13:02:10;11.20;;;4.33;;
6013;SDS011;3035;49.928;8.410;2024-01-15T13:04:41;9.73;;;4.77;;
6013;SDS011;3035;49.928;8.410;2024-01-15T13:07:09;10.43;;;4.90;;
6013;SDS011;3035;49.928;8.410;2024-01-15T13:09:37;12.90;;;5.07;;
6013;SDS011;3035;49.928;8.410;2024-01-15T13:12:06;15.03;;;5.43;;
6013;SDS011;3035;49.928;8.410;2024-01-15T13:14:34;11.73;;;4.53;;
6013;SDS011;3035;49.928;8.410;2024-01-15T13:17:02;10.63;;;5.17;;
6013;SDS011;3035;49.928;8.410;2024-01-15T13:19:30;12.10;;;5.27;;
6013;SDS011;3035;49.928;8.410;2024-01-15T13:21:59;9.77;;;5.00;;
6013;SDS011;3035;49.928;8.410;2024-01-15T13:24:27;10.90;;;4.70;;
6013;SDS011;3035;49.928;8.410;2024-01-15T13:26:54;9.43;;;4.30;;
6013;SDS011;3035;49.928;8.410;2024-01-15T13:29:23;10.13;;;4.60;;
6013;SDS011;3035;49.928;8.410;2024-01-15T13:31:50;11.87;;;4.80;;
6013;SDS011;3035;49.928;8.410;2024-01-15T13:34:19;8.80;;;4.43;;
6013;SDS011;3035;49.928;8.410;2024-01-15T13:36:47;7.10;;;4.27;;
6013;SDS011;3035;49.928;8.410;2024-01-15T13:39:15;5.90;;;4.33;;
6013;SDS011;3035;49.928;8.410;2024-01-15T13:41:44;9.03;;;4.50;;
6013;SDS011;3035;49.928;8.410;2024-01-15T13:44:12;9.37;;;3.97;;
6013;SDS011;3035;49.928;8.410;2024-01-15T13:46:40;7.27;;;4.40;;
6013;SDS011;3035;49.928;8.410;2024-01-15T13:49:08;8.37;;;4.00;;
6013;SDS011;3035;49.928;8.410;2024-01-15T13:51:37;6.97;;;4.00;;
6013;SDS011;3035;49.928;8.410;2024-01-15T13:54:05;12.57;;;4.90;;
6013;SDS011;3035;49.928;8.410;2024-01-15T13:56:33;9.30;;;4.73;;
6013;SDS011;3035;49.928;8.410;2024-01-15T13:59:02;11.77;;;4.77;;
6013;SDS011;3035;49.928;8.410;2024-01-15T14:01:29;9.40;;;5.83;;
6013;SDS011;3035;49.928;8.410;2024-01-15T14:03:57;6.53;;;3.70;;
6013;SDS011;3035;49.928;8.410;2024-01-15T14:06:26;7.70;;;4.13;;
6013;SDS011;3035;49.928;8.410;2024-01-15T14:08:53;7.47;;;3.87;;
6013;SDS011;3035;49.928;8.410;2024-01-15T14:11:21;8.20;;;4.53;;
6013;SDS011;3035;49.928;8.410;2024-01-15T14:13:49;9.33;;;4.50;;
6013;SDS011;3035;49.928;8.410;2024-01-15T14:16:18;7.50;;;3.57;;
6013;SDS011;3035;49.928;8.410;2024-01-15T14:18:46;6.53;;;3.53;;
6013;SDS011;3035;49.928;8.410;2024-01-15T14:21:14;11.03;;;3.90;;
6013;SDS011;3035;49.928;8.410;2024-01-15T14:23:42;7.30;;;3.80;;
6013;SDS011;3035;49.928;8.410;2024-01-15T14:26:11;5.93;;;3.43;;
6013;SDS011;3035;49.928;8.410;2024-01-15T14:28:38;8.70;;;3.60;;
6013;SDS011;3035;49.928;8.410;2024-01-15T14:31:06;7.80;;;4.47;;
6013;SDS011;3035;49.928;8.410;2024-01-15T14:33:34;5.70;;;3.30;;
6013;SDS011;3035;49.928;8.410;2024-01-15T14:36:03;7.40;;;3.47;;
6013;SDS011;3035;49.928;8.410;2024-01-15T14:38:31;10.57;;;3.27;;
6013;SDS011;3035;49.928;8.410;2024-01-15T14:40:58;4.10;;;2.77;;
6013;SDS011;3035;49.928;8.410;2024-01-15T14:43:26;4.33;;;2.57;;
6013;SDS011;3035;49.928;8.410;2024-01-15T14:45:53;3.90;;;3.00;;
6013;SDS011;3035;49.928;8.410;2024-01-15T14:48:21;5.50;;;3.23;;
6013;SDS011;3035;49.928;8.410;2024-01-15T14:50:48;5.70;;;3.10;;
6013;SDS011;3035;49.928;8.410;2024-01-15T14:53:16;4.60;;;3.17;;
6013;SDS011;3035;49.928;8.410;2024-01-15T14:55:43;6.20;;;2.67;;
6013;SDS011;3035;49.928;8.410;2024-01-15T14:58:10;5.00;;;3.23;;
6013;SDS011;3035;49.928;8.410;2024-01-15T15:00:38;5.30;;;2.80;;
6013;SDS011;3035;49.928;8.410;2024-01-15T15:03:05;5.93;;;3.10;;
6013;SDS011;3035;49.928;8.410;2024-01-15T15:05:33;5.20;;;2.60;;
6013;SDS011;3035;49.928;8.410;2024-01-15T15:08:00;6.43;;;3.40;;
6013;SDS011;3035;49.928;8.410;2024-01-15T15:10:28;10.23;;;2.80;;
6013;SDS011;3035;49.928;8.410;2024-01-15T15:12:55;6.73;;;2.87;;
6013;SDS011;3035;49.928;8.410;2024-01-15T15:15:22;4.40;;;2.60;;
6013;SDS011;3035;49.928;8.410;2024-01-15T15:17:50;8.97;;;3.30;;
6013;SDS011;3035;49.928;8.410;2024-01-15T15:20:17;6.20;;;2.73;;